sensor_id;sensor_type;location;lat;lon;timestamp;P1;durP1;ratioP1;P2;durP2;ratioP2
40046;SDS011;31510;48.122;11.576;2022-12-18T00:01:20;32.80;;;14.30;;
40046;SDS011;31510;48.122;11.576;2022-12-18T00:03:52;37.38;;;14.82;;
40046;SDS011;31510;48.122;11.576;2022-12-18T00:06:19;37.55;;;15.65;;
40046;SDS011;31510;48.122;11.576;2022-12-18T00:08:45;37.53;;;15.57;;
40046;SDS011;31510;48.122;11.576;2022-12-18T00:11:12;33.97;;;14.88;;
40046;SDS011;31510;48.122;11.576;2022-12-18T00:13:39;41.35;;;14.98;;
40046;SDS011;31510;48.122;11.576;2022-12-18T00:16:06;36.30;;;13.98;;
40046;SDS011;31510;48.122;11.576;2022-12-18T00:18:33;35.45;;;14.50;;
40046;SDS011;31510;48.122;11.576;2022-12-18T00:20:59;41.03;;;15.68;;
40046;SDS011;31510;48.122;11.576;2022-12-18T00:23:26;35.10;;;15.60;;
40046;SDS011;31510;48.122;11.576;2022-12-18T00:25:52;34.53;;;15.30;;
40046;SDS011;31510;48.122;11.576;2022-12-18T00:28:17;40.17;;;16.65;;
40046;SDS011;31510;48.122;11.576;2022-12-18T00:30:42;41.80;;;15.80;;
40046;SDS011;31510;48.122;11.576;2022-12-18T00:33:08;38.90;;;15.63;;
40046;SDS011;31510;48.122;11.576;2022-12-18T00:35:33;41.65;;;18.20;;
40046;SDS011;31510;48.122;11.576;2022-12-18T00:37:58;38.60;;;15.05;;
40046;SDS011;31510;48.122;11.576;2022-12-18T00:40:23;42.30;;;17.23;;
40046;SDS011;31510;48.122;11.576;2022-12-18T00:42:49;45.65;;;17.88;;
40046;SDS011;31510;48.122;11.576;2022-12-18T00:45:26;42.10;;;18.60;;
40046;SDS011;31510;48.122;11.576;2022-12-18T00:47:55;38.83;;;15.40;;
40046;SDS011;31510;48.122;11.576;2022-12-18T00:50:21;42.80;;;16.27;;
40046;SDS011;31510;48.122;11.576;2022-12-18T00:52:50;37.35;;;14.35;;
40046;SDS011;31510;48.122;11.576;2022-12-18T00:55:16;36.65;;;16.55;;
40046;SDS011;31510;48.122;11.576;2022-12-18T00:57:41;40.72;;;14.73;;
40046;SDS011;31510;48.122;11.576;2022-12-18T01:00:07;39.45;;;15.50;;
40046;SDS011;31510;48.122;11.576;2022-12-18T01:02:35;39.33;;;16.95;;
40046;SDS011;31510;48.122;11.576;2022-12-18T01:05:01;45.55;;;17.48;;
40046;SDS011;31510;48.122;11.576;2022-12-18T01:07:26;43.30;;;16.27;;
40046;SDS011;31510;48.122;11.576;2022-12-18T01:09:51;37.92;;;14.45;;
40046;SDS011;31510;48.122;11.576;2022-12-18T01:12:16;45.88;;;16.27;;
40046;SDS011;31510;48.122;11.576;2022-12-18T01:14:42;41.20;;;14.93;;
40046;SDS011;31510;48.122;11.576;2022-12-18T01:17:07;39.03;;;14.98;;
40046;SDS011;31510;48.122;11.576;2022-12-18T01:19:32;43.28;;;15.48;;
40046;SDS011;31510;48.122;11.576;2022-12-18T01:21:58;41.45;;;17.17;;
40046;SDS011;31510;48.122;11.576;2022-12-18T01:24:23;40.13;;;14.55;;
40046;SDS011;31510;48.122;11.576;2022-12-18T01:26:49;42.75;;;15.88;;
40046;SDS011;31510;48.122;11.576;2022-12-18T01:29:14;41.63;;;16.45;;
40046;SDS011;31510;48.122;11.576;2022-12-18T01:31:39;42.63;;;15.50;;
40046;SDS011;31510;48.122;11.576;2022-12-18T01:34:05;41.95;;;17.27;;
40046;SDS011;31510;48.122;11.576;2022-12-18T01:36:31;40.72;;;15.90;;
40046;SDS011;31510;48.122;11.576;2022-12-18T01:38:59;40.45;;;15.77;;
40046;SDS011;31510;48.122;11.576;2022-12-18T01:41:26;36.45;;;14.73;;
40046;SDS011;31510;48.122;11.576;2022-12-18T01:47:21;40.30;;;15.90;;
40046;SDS011;31510;48.122;11.576;2022-12-18T01:49:53;38.65;;;14.05;;
40046;SDS011;31510;48.122;11.576;2022-12-18T01:52:19;41.60;;;17.05;;
40046;SDS011;31510;48.122;11.576;2022-12-18T01:54:46;37.60;;;16.08;;
40046;SDS011;31510;48.122;11.576;2022-12-18T01:57:12;39.92;;;15.27;;
40046;SDS011;31510;48.122;11.576;2022-12-18T01:59:38;40.45;;;14.35;;
40046;SDS011;31510;48.122;11.576;2022-12-18T02:02:06;40.50;;;16.02;;
40046;SDS011;31510;48.122;11.576;2022-12-18T02:04:32;41.03;;;16.33;;
40046;SDS011;31510;48.122;11.576;2022-12-18T02:07:01;44.50;;;16.90;;
40046;SDS011;31510;48.122;11.576;2022-12-18T02:09:31;46.22;;;16.77;;
40046;SDS011;31510;48.122;11.576;2022-12-18T02:12:13;37.50;;;14.68;;
40046;SDS011;31510;48.122;11.576;2022-12-18T02:14:58;46.00;;;17.00;;
40046;SDS011;31510;48.122;11.576;2022-12-18T02:22:57;42.28;;;16.08;;
40046;SDS011;31510;48.122;11.576;2022-12-18T02:28:13;38.60;;;16.17;;
40046;SDS011;31510;48.122;11.576;2022-12-18T02:30:41;40.47;;;17.52;;
40046;SDS011;31510;48.122;11.576;2022-12-18T02:33:07;39.05;;;16.17;;
40046;SDS011;31510;48.122;11.576;2022-12-18T02:35:36;41.30;;;17.17;;
40046;SDS011;31510;48.122;11.576;2022-12-18T02:38:03;44.17;;;17.33;;
40046;SDS011;31510;48.122;11.576;2022-12-18T02:40:29;41.58;;;16.40;;
40046;SDS011;31510;48.122;11.576;2022-12-18T02:42:55;44.80;;;16.63;;
40046;SDS011;31510;48.122;11.576;2022-12-18T02:45:26;38.08;;;15.73;;
40046;SDS011;31510;48.122;11.576;2022-12-18T02:47:52;50.15;;;17.48;;
40046;SDS011;31510;48.122;11.576;2022-12-18T02:50:36;44.88;;;17.85;;
40046;SDS011;31510;48.122;11.576;2022-12-18T03:04:14;43.38;;;16.67;;
40046;SDS011;31510;48.122;11.576;2022-12-18T03:06:49;45.42;;;16.77;;
40046;SDS011;31510;48.122;11.576;2022-12-18T03:09:19;51.25;;;17.67;;
40046;SDS011;31510;48.122;11.576;2022-12-18T03:11:49;38.03;;;16.73;;
40046;SDS011;31510;48.122;11.576;2022-12-18T03:17:05;44.20;;;15.57;;
40046;SDS011;31510;48.122;11.576;2022-12-18T03:19:37;44.10;;;16.42;;
40046;SDS011;31510;48.122;11.576;2022-12-18T03:22:04;48.33;;;19.60;;
40046;SDS011;31510;48.122;11.576;2022-12-18T03:24:31;42.75;;;17.10;;
40046;SDS011;31510;48.122;11.576;2022-12-18T03:27:00;44.80;;;16.40;;
40046;SDS011;31510;48.122;11.576;2022-12-18T03:29:30;37.27;;;14.07;;
40046;SDS011;31510;48.122;11.576;2022-12-18T03:32:16;45.97;;;16.88;;
40046;SDS011;31510;48.122;11.576;2022-12-18T03:34:49;42.85;;;18.42;;
40046;SDS011;31510;48.122;11.576;2022-12-18T03:37:16;48.85;;;17.60;;
40046;SDS011;31510;48.122;11.576;2022-12-18T03:39:42;38.85;;;15.80;;
40046;SDS011;31510;48.122;11.576;2022-12-18T03:42:12;43.85;;;17.50;;
40046;SDS011;31510;48.122;11.576;2022-12-18T03:47:53;45.50;;;16.60;;
40046;SDS011;31510;48.122;11.576;2022-12-18T03:53:29;44.63;;;17.20;;
40046;SDS011;31510;48.122;11.576;2022-12-18T03:56:01;49.88;;;17.35;;
40046;SDS011;31510;48.122;11.576;2022-12-18T03:58:28;46.42;;;17.70;;
40046;SDS011;31510;48.122;11.576;2022-12-18T04:00:56;43.75;;;16.10;;
40046;SDS011;31510;48.122;11.576;2022-12-18T04:03:26;40.40;;;17.13;;
40046;SDS011;31510;48.122;11.576;2022-12-18T04:05:54;51.65;;;18.58;;
40046;SDS011;31510;48.122;11.576;2022-12-18T04:08:22;42.20;;;17.25;;
40046;SDS011;31510;48.122;11.576;2022-12-18T04:10:48;48.97;;;18.85;;
40046;SDS011;31510;48.122;11.576;2022-12-18T04:13:21;46.05;;;17.48;;
40046;SDS011;31510;48.122;11.576;2022-12-18T04:15:47;44.47;;;17.38;;
40046;SDS011;31510;48.122;11.576;2022-12-18T04:18:12;48.28;;;19.05;;
40046;SDS011;31510;48.122;11.576;2022-12-18T04:20:38;38.97;;;16.38;;
40046;SDS011;31510;48.122;11.576;2022-12-18T04:23:03;46.95;;;17.92;;
40046;SDS011;31510;48.122;11.576;2022-12-18T04:25:28;48.15;;;18.27;;
40046;SDS011;31510;48.122;11.576;2022-12-18T04:27:54;43.08;;;17.33;;
40046;SDS011;31510;48.122;11.576;2022-12-18T04:30:19;44.85;;;18.30;;
40046;SDS011;31510;48.122;11.576;2022-12-18T04:32:44;44.72;;;17.67;;
40046;SDS011;31510;48.122;11.576;2022-12-18T04:35:09;40.13;;;16.08;;
40046;SDS011;31510;48.122;11.576;2022-12-18T04:37:36;42.28;;;17.23;;
40046;SDS011;31510;48.122;11.576;2022-12-18T04:40:02;40.63;;;16.92;;
40046;SDS011;31510;48.122;11.576;2022-12-18T04:42:27;40.78;;;16.45;;
40046;SDS011;31510;48.122;11.576;2022-12-18T04:44:52;30.73;;;14.75;;
40046;SDS011;31510;48.122;11.576;2022-12-18T04:47:18;40.58;;;15.90;;
40046;SDS011;31510;48.122;11.576;2022-12-18T04:49:43;42.80;;;16.63;;
40046;SDS011;31510;48.122;11.576;2022-12-18T04:52:08;39.63;;;15.48;;
40046;SDS011;31510;48.122;11.576;2022-12-18T04:54:33;35.88;;;15.32;;
40046;SDS011;31510;48.122;11.576;2022-12-18T04:56:59;36.53;;;15.82;;
40046;SDS011;31510;48.122;11.576;2022-12-18T04:59:24;39.78;;;16.00;;
40046;SDS011;31510;48.122;11.576;2022-12-18T05:01:49;38.75;;;15.43;;
40046;SDS011;31510;48.122;11.576;2022-12-18T05:04:15;31.67;;;13.93;;
40046;SDS011;31510;48.122;11.576;2022-12-18T05:06:40;38.38;;;15.88;;
40046;SDS011;31510;48.122;11.576;2022-12-18T05:09:05;33.72;;;13.60;;
40046;SDS011;31510;48.122;11.576;2022-12-18T05:11:31;39.70;;;15.18;;
40046;SDS011;31510;48.122;11.576;2022-12-18T05:13:56;29.95;;;13.65;;
40046;SDS011;31510;48.122;11.576;2022-12-18T05:16:21;40.30;;;14.90;;
40046;SDS011;31510;48.122;11.576;2022-12-18T05:18:46;35.72;;;14.55;;
40046;SDS011;31510;48.122;11.576;2022-12-18T05:21:12;38.22;;;14.77;;
40046;SDS011;31510;48.122;11.576;2022-12-18T05:23:37;34.03;;;13.90;;
40046;SDS011;31510;48.122;11.576;2022-12-18T05:26:03;35.78;;;14.60;;
40046;SDS011;31510;48.122;11.576;2022-12-18T05:28:31;32.55;;;14.15;;
40046;SDS011;31510;48.122;11.576;2022-12-18T05:30:59;37.17;;;15.50;;
40046;SDS011;31510;48.122;11.576;2022-12-18T05:33:26;40.15;;;18.08;;
40046;SDS011;31510;48.122;11.576;2022-12-18T05:35:54;36.20;;;14.68;;
40046;SDS011;31510;48.122;11.576;2022-12-18T05:38:22;39.05;;;15.07;;
40046;SDS011;31510;48.122;11.576;2022-12-18T05:40:49;36.17;;;13.82;;
40046;SDS011;31510;48.122;11.576;2022-12-18T05:43:14;34.55;;;13.07;;
40046;SDS011;31510;48.122;11.576;2022-12-18T05:45:40;33.58;;;13.40;;
40046;SDS011;31510;48.122;11.576;2022-12-18T05:48:06;34.80;;;13.40;;
40046;SDS011;31510;48.122;11.576;2022-12-18T05:50:39;37.95;;;15.27;;
40046;SDS011;31510;48.122;11.576;2022-12-18T05:53:06;34.85;;;14.40;;
40046;SDS011;31510;48.122;11.576;2022-12-18T05:55:35;35.28;;;14.93;;
40046;SDS011;31510;48.122;11.576;2022-12-18T05:58:02;36.40;;;13.43;;
40046;SDS011;31510;48.122;11.576;2022-12-18T06:00:28;35.40;;;13.80;;
40046;SDS011;31510;48.122;11.576;2022-12-18T06:02:54;30.70;;;13.88;;
40046;SDS011;31510;48.122;11.576;2022-12-18T06:05:19;33.40;;;13.00;;
40046;SDS011;31510;48.122;11.576;2022-12-18T06:07:45;31.10;;;13.30;;
40046;SDS011;31510;48.122;11.576;2022-12-18T06:10:10;44.15;;;14.95;;
40046;SDS011;31510;48.122;11.576;2022-12-18T06:12:36;35.92;;;14.88;;
40046;SDS011;31510;48.122;11.576;2022-12-18T06:15:02;38.00;;;14.18;;
40046;SDS011;31510;48.122;11.576;2022-12-18T06:17:31;30.25;;;12.90;;
40046;SDS011;31510;48.122;11.576;2022-12-18T06:19:57;36.25;;;13.35;;
40046;SDS011;31510;48.122;11.576;2022-12-18T06:22:23;31.17;;;14.13;;
40046;SDS011;31510;48.122;11.576;2022-12-18T06:24:48;35.90;;;14.65;;
40046;SDS011;31510;48.122;11.576;2022-12-18T06:27:13;35.65;;;15.13;;
40046;SDS011;31510;48.122;11.576;2022-12-18T06:29:39;33.92;;;14.05;;
40046;SDS011;31510;48.122;11.576;2022-12-18T06:32:04;32.42;;;13.63;;
40046;SDS011;31510;48.122;11.576;2022-12-18T06:34:31;41.50;;;15.68;;
40046;SDS011;31510;48.122;11.576;2022-12-18T06:36:57;35.17;;;14.35;;
40046;SDS011;31510;48.122;11.576;2022-12-18T06:39:23;34.95;;;13.80;;
40046;SDS011;31510;48.122;11.576;2022-12-18T06:41:48;32.13;;;13.25;;
40046;SDS011;31510;48.122;11.576;2022-12-18T06:44:14;35.40;;;14.57;;
40046;SDS011;31510;48.122;11.576;2022-12-18T06:46:39;30.02;;;13.52;;
40046;SDS011;31510;48.122;11.576;2022-12-18T06:49:04;34.60;;;13.65;;
40046;SDS011;31510;48.122;11.576;2022-12-18T06:51:30;39.90;;;14.82;;
40046;SDS011;31510;48.122;11.576;2022-12-18T06:53:55;37.53;;;14.80;;
40046;SDS011;31510;48.122;11.576;2022-12-18T06:56:20;33.63;;;14.25;;
40046;SDS011;31510;48.122;11.576;2022-12-18T06:58:46;30.45;;;12.90;;
40046;SDS011;31510;48.122;11.576;2022-12-18T07:01:12;35.08;;;14.18;;
40046;SDS011;31510;48.122;11.576;2022-12-18T07:03:38;35.15;;;14.90;;
40046;SDS011;31510;48.122;11.576;2022-12-18T07:06:05;41.05;;;15.63;;
40046;SDS011;31510;48.122;11.576;2022-12-18T07:08:31;36.88;;;14.05;;
40046;SDS011;31510;48.122;11.576;2022-12-18T07:10:57;38.38;;;14.57;;
40046;SDS011;31510;48.122;11.576;2022-12-18T07:13:22;32.50;;;12.55;;
40046;SDS011;31510;48.122;11.576;2022-12-18T07:15:48;31.88;;;14.02;;
40046;SDS011;31510;48.122;11.576;2022-12-18T07:18:13;35.05;;;14.45;;
40046;SDS011;31510;48.122;11.576;2022-12-18T07:20:38;31.38;;;12.15;;
40046;SDS011;31510;48.122;11.576;2022-12-18T07:23:04;34.90;;;15.18;;
40046;SDS011;31510;48.122;11.576;2022-12-18T07:25:30;32.25;;;13.70;;
40046;SDS011;31510;48.122;11.576;2022-12-18T07:27:59;38.13;;;15.47;;
40046;SDS011;31510;48.122;11.576;2022-12-18T07:30:25;35.17;;;14.27;;
40046;SDS011;31510;48.122;11.576;2022-12-18T07:32:50;32.80;;;12.80;;
40046;SDS011;31510;48.122;11.576;2022-12-18T07:35:15;31.02;;;12.35;;
40046;SDS011;31510;48.122;11.576;2022-12-18T07:37:40;30.85;;;12.35;;
40046;SDS011;31510;48.122;11.576;2022-12-18T07:40:06;38.35;;;14.07;;
40046;SDS011;31510;48.122;11.576;2022-12-18T07:42:32;31.05;;;13.60;;
40046;SDS011;31510;48.122;11.576;2022-12-18T07:44:58;36.47;;;15.20;;
40046;SDS011;31510;48.122;11.576;2022-12-18T07:47:24;33.88;;;13.90;;
40046;SDS011;31510;48.122;11.576;2022-12-18T07:49:50;32.13;;;14.63;;
40046;SDS011;31510;48.122;11.576;2022-12-18T07:52:15;28.23;;;12.52;;
40046;SDS011;31510;48.122;11.576;2022-12-18T07:54:41;33.05;;;12.88;;
40046;SDS011;31510;48.122;11.576;2022-12-18T07:57:06;36.20;;;14.05;;
40046;SDS011;31510;48.122;11.576;2022-12-18T07:59:32;39.72;;;14.50;;
40046;SDS011;31510;48.122;11.576;2022-12-18T08:01:58;34.88;;;13.82;;
40046;SDS011;31510;48.122;11.576;2022-12-18T08:04:23;35.40;;;13.70;;
40046;SDS011;31510;48.122;11.576;2022-12-18T08:06:49;32.17;;;14.15;;
40046;SDS011;31510;48.122;11.576;2022-12-18T08:09:14;35.08;;;15.18;;
40046;SDS011;31510;48.122;11.576;2022-12-18T08:11:39;35.97;;;14.45;;
40046;SDS011;31510;48.122;11.576;2022-12-18T08:14:05;31.35;;;14.90;;
40046;SDS011;31510;48.122;11.576;2022-12-18T08:16:30;30.33;;;12.82;;
40046;SDS011;31510;48.122;11.576;2022-12-18T08:18:55;32.50;;;14.10;;
40046;SDS011;31510;48.122;11.576;2022-12-18T08:21:22;29.48;;;12.75;;
40046;SDS011;31510;48.122;11.576;2022-12-18T08:23:50;35.00;;;14.70;;
40046;SDS011;31510;48.122;11.576;2022-12-18T08:26:16;32.33;;;13.23;;
40046;SDS011;31510;48.122;11.576;2022-12-18T08:28:42;29.83;;;13.10;;
40046;SDS011;31510;48.122;11.576;2022-12-18T08:31:08;31.65;;;13.13;;
40046;SDS011;31510;48.122;11.576;2022-12-18T08:33:34;33.95;;;13.00;;
40046;SDS011;31510;48.122;11.576;2022-12-18T08:36:00;37.08;;;15.05;;
40046;SDS011;31510;48.122;11.576;2022-12-18T08:38:27;31.58;;;13.00;;
40046;SDS011;31510;48.122;11.576;2022-12-18T08:40:59;32.22;;;13.48;;
40046;SDS011;31510;48.122;11.576;2022-12-18T08:43:44;29.42;;;13.07;;
40046;SDS011;31510;48.122;11.576;2022-12-18T08:46:32;33.17;;;12.00;;
40046;SDS011;31510;48.122;11.576;2022-12-18T08:49:00;27.08;;;11.40;;
40046;SDS011;31510;48.122;11.576;2022-12-18T08:51:25;28.70;;;11.20;;
40046;SDS011;31510;48.122;11.576;2022-12-18T08:53:50;28.85;;;12.35;;
40046;SDS011;31510;48.122;11.576;2022-12-18T08:56:16;33.30;;;14.07;;
40046;SDS011;31510;48.122;11.576;2022-12-18T08:58:41;27.05;;;11.13;;
40046;SDS011;31510;48.122;11.576;2022-12-18T09:01:08;31.88;;;13.00;;
40046;SDS011;31510;48.122;11.576;2022-12-18T09:03:35;32.97;;;14.10;;
40046;SDS011;31510;48.122;11.576;2022-12-18T09:06:01;34.28;;;13.80;;
40046;SDS011;31510;48.122;11.576;2022-12-18T09:08:26;32.08;;;13.13;;
40046;SDS011;31510;48.122;11.576;2022-12-18T09:10:52;30.42;;;11.18;;
40046;SDS011;31510;48.122;11.576;2022-12-18T09:13:17;33.50;;;13.52;;
40046;SDS011;31510;48.122;11.576;2022-12-18T09:15:44;28.67;;;10.40;;
40046;SDS011;31510;48.122;11.576;2022-12-18T09:18:12;26.77;;;11.70;;
40046;SDS011;31510;48.122;11.576;2022-12-18T09:20:38;26.73;;;12.50;;
40046;SDS011;31510;48.122;11.576;2022-12-18T09:23:04;30.10;;;12.45;;
40046;SDS011;31510;48.122;11.576;2022-12-18T09:25:30;30.55;;;12.82;;
40046;SDS011;31510;48.122;11.576;2022-12-18T09:28:00;32.00;;;13.68;;
40046;SDS011;31510;48.122;11.576;2022-12-18T09:30:27;28.73;;;11.40;;
40046;SDS011;31510;48.122;11.576;2022-12-18T09:32:52;32.05;;;11.75;;
40046;SDS011;31510;48.122;11.576;2022-12-18T09:35:17;30.60;;;11.75;;
40046;SDS011;31510;48.122;11.576;2022-12-18T09:37:43;28.58;;;11.23;;
40046;SDS011;31510;48.122;11.576;2022-12-18T09:40:18;33.83;;;12.05;;
40046;SDS011;31510;48.122;11.576;2022-12-18T09:42:47;27.83;;;11.85;;
40046;SDS011;31510;48.122;11.576;2022-12-18T09:47:42;31.90;;;12.93;;
40046;SDS011;31510;48.122;11.576;2022-12-18T09:50:30;28.58;;;11.15;;
40046;SDS011;31510;48.122;11.576;2022-12-18T09:52:59;32.13;;;11.52;;
40046;SDS011;31510;48.122;11.576;2022-12-18T09:55:36;29.85;;;12.75;;
40046;SDS011;31510;48.122;11.576;2022-12-18T09:58:07;29.67;;;12.27;;
40046;SDS011;31510;48.122;11.576;2022-12-18T10:00:42;34.90;;;13.98;;
40046;SDS011;31510;48.122;11.576;2022-12-18T10:03:11;30.85;;;12.45;;
40046;SDS011;31510;48.122;11.576;2022-12-18T10:05:48;28.25;;;11.55;;
40046;SDS011;31510;48.122;11.576;2022-12-18T10:13:52;34.88;;;11.80;;
40046;SDS011;31510;48.122;11.576;2022-12-18T10:19:11;28.23;;;12.27;;
40046;SDS011;31510;48.122;11.576;2022-12-18T10:24:55;31.73;;;12.27;;
40046;SDS011;31510;48.122;11.576;2022-12-18T10:29:40;28.27;;;12.70;;
40046;SDS011;31510;48.122;11.576;2022-12-18T10:32:08;35.10;;;12.93;;
40046;SDS011;31510;48.122;11.576;2022-12-18T10:34:40;31.98;;;13.35;;
40046;SDS011;31510;48.122;11.576;2022-12-18T10:37:06;28.70;;;12.15;;
40046;SDS011;31510;48.122;11.576;2022-12-18T10:39:37;31.60;;;11.70;;
40046;SDS011;31510;48.122;11.576;2022-12-18T10:42:09;30.60;;;12.32;;
40046;SDS011;31510;48.122;11.576;2022-12-18T10:44:39;27.27;;;13.25;;
40046;SDS011;31510;48.122;11.576;2022-12-18T10:47:05;32.63;;;11.73;;
40046;SDS011;31510;48.122;11.576;2022-12-18T10:49:35;26.95;;;11.65;;
40046;SDS011;31510;48.122;11.576;2022-12-18T10:52:20;28.75;;;11.15;;
40046;SDS011;31510;48.122;11.576;2022-12-18T10:54:48;30.45;;;12.98;;
40046;SDS011;31510;48.122;11.576;2022-12-18T10:57:17;32.15;;;11.30;;
40046;SDS011;31510;48.122;11.576;2022-12-18T11:02:47;27.08;;;12.02;;
40046;SDS011;31510;48.122;11.576;2022-12-18T11:05:23;33.35;;;12.73;;
40046;SDS011;31510;48.122;11.576;2022-12-18T11:07:50;31.45;;;12.75;;
40046;SDS011;31510;48.122;11.576;2022-12-18T11:10:16;31.83;;;13.75;;
40046;SDS011;31510;48.122;11.576;2022-12-18T11:12:44;29.08;;;10.75;;
40046;SDS011;31510;48.122;11.576;2022-12-18T11:15:28;26.30;;;10.88;;
40046;SDS011;31510;48.122;11.576;2022-12-18T11:17:55;31.42;;;12.68;;
40046;SDS011;31510;48.122;11.576;2022-12-18T11:22:59;30.08;;;12.82;;
40046;SDS011;31510;48.122;11.576;2022-12-18T11:25:27;30.95;;;12.00;;
40046;SDS011;31510;48.122;11.576;2022-12-18T11:27:58;27.00;;;13.57;;
40046;SDS011;31510;48.122;11.576;2022-12-18T11:38:25;25.73;;;11.43;;
40046;SDS011;31510;48.122;11.576;2022-12-18T11:43:28;26.90;;;10.85;;
40046;SDS011;31510;48.122;11.576;2022-12-18T11:45:59;29.70;;;12.25;;
40046;SDS011;31510;48.122;11.576;2022-12-18T11:51:31;31.88;;;11.38;;
40046;SDS011;31510;48.122;11.576;2022-12-18T11:54:16;25.83;;;10.30;;
40046;SDS011;31510;48.122;11.576;2022-12-18T11:56:49;29.80;;;12.73;;
40046;SDS011;31510;48.122;11.576;2022-12-18T11:59:28;29.50;;;11.95;;
40046;SDS011;31510;48.122;11.576;2022-12-18T12:05:11;29.13;;;12.07;;
40046;SDS011;31510;48.122;11.576;2022-12-18T12:13:37;31.15;;;12.40;;
40046;SDS011;31510;48.122;11.576;2022-12-18T12:21:58;27.38;;;11.10;;
40046;SDS011;31510;48.122;11.576;2022-12-18T12:40:46;23.98;;;10.43;;
40046;SDS011;31510;48.122;11.576;2022-12-18T12:43:20;28.55;;;11.55;;
40046;SDS011;31510;48.122;11.576;2022-12-18T12:46:04;29.17;;;10.88;;
40046;SDS011;31510;48.122;11.576;2022-12-18T12:48:46;24.52;;;10.95;;
40046;SDS011;31510;48.122;11.576;2022-12-18T12:51:17;34.28;;;11.10;;
40046;SDS011;31510;48.122;11.576;2022-12-18T12:53:46;26.83;;;10.25;;
40046;SDS011;31510;48.122;11.576;2022-12-18T12:56:12;24.55;;;10.68;;
40046;SDS011;31510;48.122;11.576;2022-12-18T13:07:06;25.25;;;11.23;;
40046;SDS011;31510;48.122;11.576;2022-12-18T13:12:41;26.30;;;11.27;;
40046;SDS011;31510;48.122;11.576;2022-12-18T13:20:40;24.50;;;10.57;;
40046;SDS011;31510;48.122;11.576;2022-12-18T13:23:19;26.27;;;10.63;;
40046;SDS011;31510;48.122;11.576;2022-12-18T13:25:47;26.35;;;10.70;;
40046;SDS011;31510;48.122;11.576;2022-12-18T13:28:14;22.77;;;10.32;;
40046;SDS011;31510;48.122;11.576;2022-12-18T13:31:06;27.38;;;11.32;;
40046;SDS011;31510;48.122;11.576;2022-12-18T13:41:43;26.88;;;9.90;;
40046;SDS011;31510;48.122;11.576;2022-12-18T13:46:55;25.77;;;11.95;;
40046;SDS011;31510;48.122;11.576;2022-12-18T13:51:49;29.85;;;13.30;;
40046;SDS011;31510;48.122;11.576;2022-12-18T13:54:21;28.52;;;11.30;;
40046;SDS011;31510;48.122;11.576;2022-12-18T13:57:02;29.30;;;12.73;;
40046;SDS011;31510;48.122;11.576;2022-12-18T13:59:35;30.02;;;12.43;;
40046;SDS011;31510;48.122;11.576;2022-12-18T14:02:12;30.08;;;10.57;;
40046;SDS011;31510;48.122;11.576;2022-12-18T14:04:39;32.20;;;12.25;;
40046;SDS011;31510;48.122;11.576;2022-12-18T14:07:06;35.03;;;12.27;;
40046;SDS011;31510;48.122;11.576;2022-12-18T14:09:45;30.70;;;10.20;;
40046;SDS011;31510;48.122;11.576;2022-12-18T14:12:17;27.50;;;11.68;;
40046;SDS011;31510;48.122;11.576;2022-12-18T14:15:05;28.48;;;11.27;;
40046;SDS011;31510;48.122;11.576;2022-12-18T14:17:35;31.52;;;12.65;;
40046;SDS011;31510;48.122;11.576;2022-12-18T14:20:01;29.42;;;12.18;;
40046;SDS011;31510;48.122;11.576;2022-12-18T14:22:26;30.80;;;11.68;;
40046;SDS011;31510;48.122;11.576;2022-12-18T14:27:38;28.13;;;11.45;;
40046;SDS011;31510;48.122;11.576;2022-12-18T14:35:56;26.73;;;10.90;;
40046;SDS011;31510;48.122;11.576;2022-12-18T14:38:24;28.95;;;12.45;;
40046;SDS011;31510;48.122;11.576;2022-12-18T14:40:53;24.30;;;11.15;;
40046;SDS011;31510;48.122;11.576;2022-12-18T14:43:20;29.98;;;12.60;;
40046;SDS011;31510;48.122;11.576;2022-12-18T14:45:45;31.10;;;11.55;;
40046;SDS011;31510;48.122;11.576;2022-12-18T14:50:36;30.52;;;11.95;;
40046;SDS011;31510;48.122;11.576;2022-12-18T14:53:02;24.75;;;10.13;;
40046;SDS011;31510;48.122;11.576;2022-12-18T14:55:28;27.63;;;12.38;;
40046;SDS011;31510;48.122;11.576;2022-12-18T14:57:53;28.88;;;11.57;;
40046;SDS011;31510;48.122;11.576;2022-12-18T15:00:21;32.95;;;13.60;;
40046;SDS011;31510;48.122;11.576;2022-12-18T15:02:53;32.72;;;13.70;;
40046;SDS011;31510;48.122;11.576;2022-12-18T15:05:24;28.75;;;12.20;;
40046;SDS011;31510;48.122;11.576;2022-12-18T15:07:53;30.67;;;12.00;;
40046;SDS011;31510;48.122;11.576;2022-12-18T15:10:21;30.50;;;12.90;;
40046;SDS011;31510;48.122;11.576;2022-12-18T15:12:49;28.58;;;11.07;;
40046;SDS011;31510;48.122;11.576;2022-12-18T15:20:33;29.10;;;13.02;;
40046;SDS011;31510;48.122;11.576;2022-12-18T15:23:13;34.65;;;11.93;;
40046;SDS011;31510;48.122;11.576;2022-12-18T15:25:40;26.85;;;11.93;;
40046;SDS011;31510;48.122;11.576;2022-12-18T15:31:00;27.23;;;10.73;;
40046;SDS011;31510;48.122;11.576;2022-12-18T15:36:18;29.40;;;12.77;;
40046;SDS011;31510;48.122;11.576;2022-12-18T15:38:47;30.77;;;12.30;;
40046;SDS011;31510;48.122;11.576;2022-12-18T15:41:15;28.10;;;11.93;;
40046;SDS011;31510;48.122;11.576;2022-12-18T15:43:43;34.47;;;13.63;;
40046;SDS011;31510;48.122;11.576;2022-12-18T15:46:13;33.45;;;13.05;;
40046;SDS011;31510;48.122;11.576;2022-12-18T15:48:41;32.15;;;11.88;;
40046;SDS011;31510;48.122;11.576;2022-12-18T15:51:13;29.65;;;11.43;;
40046;SDS011;31510;48.122;11.576;2022-12-18T15:53:40;33.55;;;12.00;;
40046;SDS011;31510;48.122;11.576;2022-12-18T15:56:13;28.95;;;12.77;;
40046;SDS011;31510;48.122;11.576;2022-12-18T15:58:58;34.55;;;13.60;;
40046;SDS011;31510;48.122;11.576;2022-12-18T16:01:25;38.42;;;14.77;;
40046;SDS011;31510;48.122;11.576;2022-12-18T16:03:52;39.08;;;14.35;;
40046;SDS011;31510;48.122;11.576;2022-12-18T16:06:18;32.95;;;14.75;;
40046;SDS011;31510;48.122;11.576;2022-12-18T16:08:44;32.65;;;14.38;;
40046;SDS011;31510;48.122;11.576;2022-12-18T16:11:23;35.10;;;12.88;;
40046;SDS011;31510;48.122;11.576;2022-12-18T16:16:45;32.58;;;13.30;;
40046;SDS011;31510;48.122;11.576;2022-12-18T16:19:12;37.28;;;16.60;;
40046;SDS011;31510;48.122;11.576;2022-12-18T16:21:38;32.10;;;12.95;;
40046;SDS011;31510;48.122;11.576;2022-12-18T16:24:04;29.67;;;11.77;;
40046;SDS011;31510;48.122;11.576;2022-12-18T16:26:30;37.08;;;13.90;;
40046;SDS011;31510;48.122;11.576;2022-12-18T16:28:55;35.33;;;14.45;;
40046;SDS011;31510;48.122;11.576;2022-12-18T16:31:20;35.30;;;13.73;;
40046;SDS011;31510;48.122;11.576;2022-12-18T16:33:45;29.35;;;13.38;;
40046;SDS011;31510;48.122;11.576;2022-12-18T16:36:11;33.65;;;13.70;;
40046;SDS011;31510;48.122;11.576;2022-12-18T16:38:36;34.10;;;13.25;;
40046;SDS011;31510;48.122;11.576;2022-12-18T16:41:02;34.67;;;13.07;;
40046;SDS011;31510;48.122;11.576;2022-12-18T16:43:58;37.40;;;14.10;;
40046;SDS011;31510;48.122;11.576;2022-12-18T16:46:24;36.08;;;14.05;;
40046;SDS011;31510;48.122;11.576;2022-12-18T16:48:49;37.60;;;13.50;;